sensor_id;sensor_type;location;lat;lon;timestamp;temperature;humidity
326;DHT22;150;52.352;14.058;2023-06-24T00:01:26;20.00;54.10
326;DHT22;150;52.352;14.058;2023-06-24T00:04:14;20.00;54.20
326;DHT22;150;52.352;14.058;2023-06-24T00:06:46;20.00;54.20
326;DHT22;150;52.352;14.058;2023-06-24T00:09:21;20.00;54.30
326;DHT22;150;52.352;14.058;2023-06-24T00:11:56;20.00;54.50
326;DHT22;150;52.352;14.058;2023-06-24T00:14:26;19.90;54.00
326;DHT22;150;52.352;14.058;2023-06-24T00:16:59;19.90;54.30
326;DHT22;150;52.352;14.058;2023-06-24T00:19:32;19.80;54.10
326;DHT22;150;52.352;14.058;2023-06-24T00:22:08;19.80;54.60
326;DHT22;150;52.352;14.058;2023-06-24T00:24:43;19.80;55.30
326;DHT22;150;52.352;14.058;2023-06-24T00:27:23;19.80;55.10
326;DHT22;150;52.352;14.058;2023-06-24T00:29:57;19.80;54.90
326;DHT22;150;52.352;14.058;2023-06-24T00:32:43;19.80;55.10
326;DHT22;150;52.352;14.058;2023-06-24T00:35:17;19.70;55.50
326;DHT22;150;52.352;14.058;2023-06-24T00:37:44;19.80;55.10
326;DHT22;150;52.352;14.058;2023-06-24T00:40:24;19.70;54.80
326;DHT22;150;52.352;14.058;2023-06-24T00:42:54;19.80;55.50
326;DHT22;150;52.352;14.058;2023-06-24T00:45:23;19.70;55.50
326;DHT22;150;52.352;14.058;2023-06-24T00:47:51;19.70;55.00
326;DHT22;150;52.352;14.058;2023-06-24T00:50:33;19.70;55.20
326;DHT22;150;52.352;14.058;2023-06-24T00:53:05;19.70;55.10
326;DHT22;150;52.352;14.058;2023-06-24T00:55:37;19.70;55.10
326;DHT22;150;52.352;14.058;2023-06-24T00:58:08;19.70;55.10
326;DHT22;150;52.352;14.058;2023-06-24T01:00:45;19.70;54.70
326;DHT22;150;52.352;14.058;2023-06-24T01:03:23;19.70;55.10
326;DHT22;150;52.352;14.058;2023-06-24T01:05:50;19.70;54.70
326;DHT22;150;52.352;14.058;2023-06-24T01:08:29;19.70;54.90
326;DHT22;150;52.352;14.058;2023-06-24T01:10:58;19.60;54.60
326;DHT22;150;52.352;14.058;2023-06-24T01:13:29;19.70;54.70
326;DHT22;150;52.352;14.058;2023-06-24T01:16:06;19.60;54.70
326;DHT22;150;52.352;14.058;2023-06-24T01:18:43;19.70;54.70
326;DHT22;150;52.352;14.058;2023-06-24T01:21:31;19.70;54.60
326;DHT22;150;52.352;14.058;2023-06-24T01:24:26;19.70;54.50
326;DHT22;150;52.352;14.058;2023-06-24T01:27:24;19.70;54.50
326;DHT22;150;52.352;14.058;2023-06-24T01:30:12;19.60;54.10
326;DHT22;150;52.352;14.058;2023-06-24T01:32:46;19.70;54.30
326;DHT22;150;52.352;14.058;2023-06-24T01:35:18;19.60;53.70
326;DHT22;150;52.352;14.058;2023-06-24T01:37:48;19.60;53.80
326;DHT22;150;52.352;14.058;2023-06-24T01:40:25;19.50;54.10
326;DHT22;150;52.352;14.058;2023-06-24T01:42:53;19.50;54.50
326;DHT22;150;52.352;14.058;2023-06-24T01:45:35;19.50;54.40
326;DHT22;150;52.352;14.058;2023-06-24T01:48:14;19.50;54.40
326;DHT22;150;52.352;14.058;2023-06-24T01:50:44;19.40;54.40
326;DHT22;150;52.352;14.058;2023-06-24T01:53:12;19.40;54.20
326;DHT22;150;52.352;14.058;2023-06-24T01:55:41;19.40;54.20
326;DHT22;150;52.352;14.058;2023-06-24T01:58:09;19.50;54.40
326;DHT22;150;52.352;14.058;2023-06-24T02:00:39;19.50;54.50
326;DHT22;150;52.352;14.058;2023-06-24T02:03:07;19.50;54.40
326;DHT22;150;52.352;14.058;2023-06-24T02:05:36;19.50;54.80
326;DHT22;150;52.352;14.058;2023-06-24T02:08:06;19.50;54.50
326;DHT22;150;52.352;14.058;2023-06-24T02:10:37;19.50;55.20
326;DHT22;150;52.352;14.058;2023-06-24T02:13:04;19.50;55.80
326;DHT22;150;52.352;14.058;2023-06-24T02:15:33;19.60;56.20
326;DHT22;150;52.352;14.058;2023-06-24T02:18:04;19.60;56.00
326;DHT22;150;52.352;14.058;2023-06-24T02:21:24;19.60;55.90
326;DHT22;150;52.352;14.058;2023-06-24T02:24:30;19.60;56.70
326;DHT22;150;52.352;14.058;2023-06-24T02:27:03;19.50;56.40
326;DHT22;150;52.352;14.058;2023-06-24T02:29:32;19.60;56.80
326;DHT22;150;52.352;14.058;2023-06-24T02:32:00;19.60;56.90
326;DHT22;150;52.352;14.058;2023-06-24T02:34:27;19.80;57.10
326;DHT22;150;52.352;14.058;2023-06-24T02:36:58;19.70;56.50
326;DHT22;150;52.352;14.058;2023-06-24T02:39:27;19.70;56.80
326;DHT22;150;52.352;14.058;2023-06-24T02:42:00;19.70;56.80
326;DHT22;150;52.352;14.058;2023-06-24T02:44:31;19.80;56.70
326;DHT22;150;52.352;14.058;2023-06-24T02:46:59;19.80;56.90
326;DHT22;150;52.352;14.058;2023-06-24T02:49:27;19.80;56.80
326;DHT22;150;52.352;14.058;2023-06-24T02:51:54;19.80;56.30
326;DHT22;150;52.352;14.058;2023-06-24T02:54:22;19.90;56.60
326;DHT22;150;52.352;14.058;2023-06-24T02:56:54;19.80;56.30
326;DHT22;150;52.352;14.058;2023-06-24T02:59:26;19.90;56.50
326;DHT22;150;52.352;14.058;2023-06-24T03:01:53;19.90;56.30
326;DHT22;150;52.352;14.058;2023-06-24T03:04:21;19.90;56.20
326;DHT22;150;52.352;14.058;2023-06-24T03:07:05;19.90;55.70
326;DHT22;150;52.352;14.058;2023-06-24T03:09:51;19.90;55.90
326;DHT22;150;52.352;14.058;2023-06-24T03:12:26;19.90;55.90
326;DHT22;150;52.352;14.058;2023-06-24T03:15:00;19.90;55.30
326;DHT22;150;52.352;14.058;2023-06-24T03:17:45;19.80;55.20
326;DHT22;150;52.352;14.058;2023-06-24T03:20:12;19.90;56.10
326;DHT22;150;52.352;14.058;2023-06-24T03:22:39;19.90;55.70
326;DHT22;150;52.352;14.058;2023-06-24T03:25:07;19.90;55.70
326;DHT22;150;52.352;14.058;2023-06-24T03:27:34;19.90;55.60
326;DHT22;150;52.352;14.058;2023-06-24T03:30:03;20.00;55.40
326;DHT22;150;52.352;14.058;2023-06-24T03:32:29;20.00;55.50
326;DHT22;150;52.352;14.058;2023-06-24T03:34:56;20.00;55.40
326;DHT22;150;52.352;14.058;2023-06-24T03:37:23;20.00;55.10
326;DHT22;150;52.352;14.058;2023-06-24T03:39:49;20.10;54.50
326;DHT22;150;52.352;14.058;2023-06-24T03:42:17;20.10;54.80
326;DHT22;150;52.352;14.058;2023-06-24T03:44:44;20.30;55.30
326;DHT22;150;52.352;14.058;2023-06-24T03:47:11;20.50;53.80
326;DHT22;150;52.352;14.058;2023-06-24T03:49:38;20.70;52.90
326;DHT22;150;52.352;14.058;2023-06-24T03:52:05;20.80;51.90
326;DHT22;150;52.352;14.058;2023-06-24T03:54:34;20.90;51.10
326;DHT22;150;52.352;14.058;2023-06-24T03:57:01;20.90;49.90
326;DHT22;150;52.352;14.058;2023-06-24T03:59:29;20.70;48.90
326;DHT22;150;52.352;14.058;2023-06-24T04:01:56;20.60;49.50
326;DHT22;150;52.352;14.058;2023-06-24T04:04:23;20.60;50.20
326;DHT22;150;52.352;14.058;2023-06-24T04:06:49;20.60;50.30
326;DHT22;150;52.352;14.058;2023-06-24T04:09:16;20.50;49.60
326;DHT22;150;52.352;14.058;2023-06-24T04:11:43;20.40;49.40
326;DHT22;150;52.352;14.058;2023-06-24T04:14:10;20.30;49.00
326;DHT22;150;52.352;14.058;2023-06-24T04:16:38;20.20;49.50
326;DHT22;150;52.352;14.058;2023-06-24T04:19:05;20.20;49.90
326;DHT22;150;52.352;14.058;2023-06-24T04:21:32;20.10;50.10
326;DHT22;150;52.352;14.058;2023-06-24T04:23:59;20.00;50.40
326;DHT22;150;52.352;14.058;2023-06-24T04:26:25;20.00;50.40
326;DHT22;150;52.352;14.058;2023-06-24T04:28:52;20.00;51.00
326;DHT22;150;52.352;14.058;2023-06-24T04:31:19;19.90;51.30
326;DHT22;150;52.352;14.058;2023-06-24T04:33:47;20.00;51.50
326;DHT22;150;52.352;14.058;2023-06-24T04:36:14;20.10;52.00
326;DHT22;150;52.352;14.058;2023-06-24T04:38:41;20.60;51.80
326;DHT22;150;52.352;14.058;2023-06-24T04:41:08;21.30;48.30
326;DHT22;150;52.352;14.058;2023-06-24T04:43:35;22.40;45.00
326;DHT22;150;52.352;14.058;2023-06-24T04:46:02;23.50;40.20
326;DHT22;150;52.352;14.058;2023-06-24T04:48:28;24.50;35.50
326;DHT22;150;52.352;14.058;2023-06-24T04:50:56;25.10;34.10
326;DHT22;150;52.352;14.058;2023-06-24T04:53:23;25.20;31.40
326;DHT22;150;52.352;14.058;2023-06-24T04:55:50;24.80;31.40
326;DHT22;150;52.352;14.058;2023-06-24T04:58:17;24.10;32.50
326;DHT22;150;52.352;14.058;2023-06-24T05:00:44;23.70;33.60
326;DHT22;150;52.352;14.058;2023-06-24T05:03:10;23.30;34.80
326;DHT22;150;52.352;14.058;2023-06-24T05:05:38;23.00;35.40
326;DHT22;150;52.352;14.058;2023-06-24T05:08:06;22.70;37.90
326;DHT22;150;52.352;14.058;2023-06-24T05:10:33;22.70;39.00
326;DHT22;150;52.352;14.058;2023-06-24T05:13:00;22.60;40.00
326;DHT22;150;52.352;14.058;2023-06-24T05:15:26;22.50;39.40
326;DHT22;150;52.352;14.058;2023-06-24T05:17:53;22.40;40.30
326;DHT22;150;52.352;14.058;2023-06-24T05:20:23;22.30;40.40
326;DHT22;150;52.352;14.058;2023-06-24T05:22:50;22.30;41.60
326;DHT22;150;52.352;14.058;2023-06-24T05:25:19;22.40;42.00
326;DHT22;150;52.352;14.058;2023-06-24T05:27:45;22.30;41.60
326;DHT22;150;52.352;14.058;2023-06-24T05:30:13;22.20;41.30
326;DHT22;150;52.352;14.058;2023-06-24T05:32:40;22.20;41.70
326;DHT22;150;52.352;14.058;2023-06-24T05:35:07;22.10;41.40
326;DHT22;150;52.352;14.058;2023-06-24T05:37:33;21.90;41.30
326;DHT22;150;52.352;14.058;2023-06-24T05:40:01;21.80;42.40
326;DHT22;150;52.352;14.058;2023-06-24T05:42:31;21.90;44.10
326;DHT22;150;52.352;14.058;2023-06-24T05:44:59;22.10;44.50
326;DHT22;150;52.352;14.058;2023-06-24T05:47:26;21.90;42.20
326;DHT22;150;52.352;14.058;2023-06-24T05:49:52;22.00;43.10
326;DHT22;150;52.352;14.058;2023-06-24T05:52:19;22.10;44.00
326;DHT22;150;52.352;14.058;2023-06-24T05:54:46;22.10;42.20
326;DHT22;150;52.352;14.058;2023-06-24T05:57:13;22.00;42.80
326;DHT22;150;52.352;14.058;2023-06-24T05:59:41;22.10;42.80
326;DHT22;150;52.352;14.058;2023-06-24T06:02:11;22.00;43.10
326;DHT22;150;52.352;14.058;2023-06-24T06:04:38;22.10;43.20
326;DHT22;150;52.352;14.058;2023-06-24T06:07:05;21.90;42.80
326;DHT22;150;52.352;14.058;2023-06-24T06:09:34;22.00;43.10
326;DHT22;150;52.352;14.058;2023-06-24T06:12:01;22.00;43.10
326;DHT22;150;52.352;14.058;2023-06-24T06:14:28;22.10;42.70
326;DHT22;150;52.352;14.058;2023-06-24T06:16:56;22.30;43.30
326;DHT22;150;52.352;14.058;2023-06-24T06:19:23;22.40;42.10
326;DHT22;150;52.352;14.058;2023-06-24T06:21:49;22.40;42.30
326;DHT22;150;52.352;14.058;2023-06-24T06:24:16;22.40;41.30
326;DHT22;150;52.352;14.058;2023-06-24T06:26:44;22.40;39.40
326;DHT22;150;52.352;14.058;2023-06-24T06:29:11;22.40;40.50
326;DHT22;150;52.352;14.058;2023-06-24T06:31:38;22.40;40.30
326;DHT22;150;52.352;14.058;2023-06-24T06:34:06;22.30;40.40
326;DHT22;150;52.352;14.058;2023-06-24T06:36:34;22.20;40.00
326;DHT22;150;52.352;14.058;2023-06-24T06:39:00;22.20;40.40
326;DHT22;150;52.352;14.058;2023-06-24T06:41:27;22.10;39.90
326;DHT22;150;52.352;14.058;2023-06-24T06:43:54;22.20;40.80
326;DHT22;150;52.352;14.058;2023-06-24T06:46:21;22.10;40.90
326;DHT22;150;52.352;14.058;2023-06-24T06:48:47;22.20;41.50
326;DHT22;150;52.352;14.058;2023-06-24T06:51:16;22.20;41.30
326;DHT22;150;52.352;14.058;2023-06-24T06:53:44;22.20;41.00
326;DHT22;150;52.352;14.058;2023-06-24T06:56:16;22.10;41.30
326;DHT22;150;52.352;14.058;2023-06-24T06:58:43;22.00;40.10
326;DHT22;150;52.352;14.058;2023-06-24T07:01:10;22.00;40.90
326;DHT22;150;52.352;14.058;2023-06-24T07:03:36;22.10;42.60
326;DHT22;150;52.352;14.058;2023-06-24T07:06:03;22.20;42.00
326;DHT22;150;52.352;14.058;2023-06-24T07:08:31;22.10;40.60
326;DHT22;150;52.352;14.058;2023-06-24T07:10:58;22.10;41.70
326;DHT22;150;52.352;14.058;2023-06-24T07:13:25;22.10;41.70
326;DHT22;150;52.352;14.058;2023-06-24T07:15:52;22.20;41.10
326;DHT22;150;52.352;14.058;2023-06-24T07:18:19;22.20;40.80
326;DHT22;150;52.352;14.058;2023-06-24T07:20:46;22.20;40.30
326;DHT22;150;52.352;14.058;2023-06-24T07:23:12;22.20;40.90
326;DHT22;150;52.352;14.058;2023-06-24T07:25:40;22.20;39.90
326;DHT22;150;52.352;14.058;2023-06-24T07:28:07;22.30;40.60
326;DHT22;150;52.352;14.058;2023-06-24T07:30:34;22.30;40.30
326;DHT22;150;52.352;14.058;2023-06-24T07:33:01;22.50;40.60
326;DHT22;150;52.352;14.058;2023-06-24T07:35:31;22.60;40.30
326;DHT22;150;52.352;14.058;2023-06-24T07:37:57;22.60;40.00
326;DHT22;150;52.352;14.058;2023-06-24T07:40:24;22.60;39.10
326;DHT22;150;52.352;14.058;2023-06-24T07:42:53;22.50;39.00
326;DHT22;150;52.352;14.058;2023-06-24T07:45:19;22.60;40.20
326;DHT22;150;52.352;14.058;2023-06-24T07:47:46;22.70;38.80
326;DHT22;150;52.352;14.058;2023-06-24T07:50:16;22.80;37.60
326;DHT22;150;52.352;14.058;2023-06-24T07:52:43;22.90;39.00
326;DHT22;150;52.352;14.058;2023-06-24T07:55:10;23.00;35.90
326;DHT22;150;52.352;14.058;2023-06-24T07:57:37;23.00;37.40
326;DHT22;150;52.352;14.058;2023-06-24T08:00:08;23.10;36.90
326;DHT22;150;52.352;14.058;2023-06-24T08:02:36;23.20;35.70
326;DHT22;150;52.352;14.058;2023-06-24T08:05:03;23.30;37.80
326;DHT22;150;52.352;14.058;2023-06-24T08:07:30;23.20;34.80
326;DHT22;150;52.352;14.058;2023-06-24T08:09:57;23.20;33.70
326;DHT22;150;52.352;14.058;2023-06-24T08:12:24;23.20;34.70
326;DHT22;150;52.352;14.058;2023-06-24T08:14:50;23.30;35.30
326;DHT22;150;52.352;14.058;2023-06-24T08:17:18;23.40;35.60
326;DHT22;150;52.352;14.058;2023-06-24T08:19:45;23.40;35.40
326;DHT22;150;52.352;14.058;2023-06-24T08:22:12;23.60;35.00
326;DHT22;150;52.352;14.058;2023-06-24T08:24:40;23.70;33.60
326;DHT22;150;52.352;14.058;2023-06-24T08:27:06;23.80;33.30
326;DHT22;150;52.352;14.058;2023-06-24T08:29:34;24.00;32.40
326;DHT22;150;52.352;14.058;2023-06-24T08:32:01;24.40;33.80
326;DHT22;150;52.352;14.058;2023-06-24T08:34:29;24.10;29.40
326;DHT22;150;52.352;14.058;2023-06-24T08:36:56;23.80;31.10
326;DHT22;150;52.352;14.058;2023-06-24T08:39:22;23.80;33.40
326;DHT22;150;52.352;14.058;2023-06-24T08:41:49;23.90;31.80
326;DHT22;150;52.352;14.058;2023-06-24T08:44:19;24.10;30.00
326;DHT22;150;52.352;14.058;2023-06-24T08:46:48;24.10;28.40
326;DHT22;150;52.352;14.058;2023-06-24T08:49:23;24.30;28.90
326;DHT22;150;52.352;14.058;2023-06-24T08:52:04;24.40;26.90
326;DHT22;150;52.352;14.058;2023-06-24T08:54:36;24.40;27.20
326;DHT22;150;52.352;14.058;2023-06-24T08:57:10;24.50;26.60
326;DHT22;150;52.352;14.058;2023-06-24T08:59:43;24.30;26.70
326;DHT22;150;52.352;14.058;2023-06-24T09:02:13;24.40;27.90
326;DHT22;150;52.352;14.058;2023-06-24T09:04:40;24.40;26.40
326;DHT22;150;52.352;14.058;2023-06-24T09:07:09;24.50;27.00
326;DHT22;150;52.352;14.058;2023-06-24T09:09:42;24.70;29.20
326;DHT22;150;52.352;14.058;2023-06-24T09:12:12;24.90;25.00
326;DHT22;150;52.352;14.058;2023-06-24T09:14:39;25.10;25.50
326;DHT22;150;52.352;14.058;2023-06-24T09:17:14;25.20;25.10
326;DHT22;150;52.352;14.058;2023-06-24T09:20:07;25.10;25.00
326;DHT22;150;52.352;14.058;2023-06-24T09:22:50;25.20;24.30
326;DHT22;150;52.352;14.058;2023-06-24T09:25:37;25.20;25.50
326;DHT22;150;52.352;14.058;2023-06-24T09:28:16;25.10;25.00
326;DHT22;150;52.352;14.058;2023-06-24T09:31:28;25.00;25.90
326;DHT22;150;52.352;14.058;2023-06-24T09:34:12;25.00;24.40
326;DHT22;150;52.352;14.058;2023-06-24T09:36:42;25.10;26.60
326;DHT22;150;52.352;14.058;2023-06-24T09:39:21;25.10;25.60
326;DHT22;150;52.352;14.058;2023-06-24T09:41:57;25.20;25.10
326;DHT22;150;52.352;14.058;2023-06-24T09:44:58;25.40;26.10
326;DHT22;150;52.352;14.058;2023-06-24T09:47:26;25.40;25.20
326;DHT22;150;52.352;14.058;2023-06-24T09:50:14;25.40;24.50
326;DHT22;150;52.352;14.058;2023-06-24T09:53:09;25.40;23.60
326;DHT22;150;52.352;14.058;2023-06-24T09:56:10;25.20;22.80
326;DHT22;150;52.352;14.058;2023-06-24T09:58:49;24.90;21.10
326;DHT22;150;52.352;14.058;2023-06-24T10:01:20;24.90;21.90
326;DHT22;150;52.352;14.058;2023-06-24T10:03:52;25.00;22.00
326;DHT22;150;52.352;14.058;2023-06-24T10:06:27;25.20;22.10
326;DHT22;150;52.352;14.058;2023-06-24T10:09:09;25.20;21.90
326;DHT22;150;52.352;14.058;2023-06-24T10:11:40;25.00;21.40
326;DHT22;150;52.352;14.058;2023-06-24T10:14:06;25.00;21.50
326;DHT22;150;52.352;14.058;2023-06-24T10:16:41;25.10;21.40
326;DHT22;150;52.352;14.058;2023-06-24T10:19:07;25.20;22.40
326;DHT22;150;52.352;14.058;2023-06-24T10:21:47;25.40;23.20
326;DHT22;150;52.352;14.058;2023-06-24T10:24:29;25.40;20.60
326;DHT22;150;52.352;14.058;2023-06-24T10:27:02;25.50;21.20
326;DHT22;150;52.352;14.058;2023-06-24T10:29:35;25.70;20.90
326;DHT22;150;52.352;14.058;2023-06-24T10:32:08;25.90;19.30
326;DHT22;150;52.352;14.058;2023-06-24T10:34:42;26.00;20.70
326;DHT22;150;52.352;14.058;2023-06-24T10:37:13;26.10;21.00
326;DHT22;150;52.352;14.058;2023-06-24T10:39:57;26.10;19.40
326;DHT22;150;52.352;14.058;2023-06-24T10:42:30;26.00;18.60
326;DHT22;150;52.352;14.058;2023-06-24T10:45:12;26.00;17.10
326;DHT22;150;52.352;14.058;2023-06-24T10:47:52;26.10;18.00
326;DHT22;150;52.352;14.058;2023-06-24T10:50:28;26.20;19.40
326;DHT22;150;52.352;14.058;2023-06-24T10:52:55;26.20;17.70
326;DHT22;150;52.352;14.058;2023-06-24T10:55:58;26.20;19.20
326;DHT22;150;52.352;14.058;2023-06-24T10:58:29;26.10;17.20
326;DHT22;150;52.352;14.058;2023-06-24T11:01:08;26.20;18.30
326;DHT22;150;52.352;14.058;2023-06-24T11:03:44;26.30;16.60
326;DHT22;150;52.352;14.058;2023-06-24T11:06:14;26.20;17.40
326;DHT22;150;52.352;14.058;2023-06-24T11:09:01;26.30;16.60
326;DHT22;150;52.352;14.058;2023-06-24T11:11:30;26.30;16.60
326;DHT22;150;52.352;14.058;2023-06-24T11:13:59;26.20;16.50
326;DHT22;150;52.352;14.058;2023-06-24T11:16:26;26.20;16.50
326;DHT22;150;52.352;14.058;2023-06-24T11:19:03;26.20;16.50
326;DHT22;150;52.352;14.058;2023-06-24T11:21:31;26.30;16.50
326;DHT22;150;52.352;14.058;2023-06-24T11:24:01;26.40;16.60
326;DHT22;150;52.352;14.058;2023-06-24T11:26:27;26.60;16.70
326;DHT22;150;52.352;14.058;2023-06-24T11:28:54;26.70;16.80
326;DHT22;150;52.352;14.058;2023-06-24T11:31:25;26.60;15.50
326;DHT22;150;52.352;14.058;2023-06-24T11:33:54;26.60;16.70
326;DHT22;150;52.352;14.058;2023-06-24T11:36:29;26.80;16.10
326;DHT22;150;52.352;14.058;2023-06-24T11:39:00;26.70;16.80
326;DHT22;150;52.352;14.058;2023-06-24T11:41:29;26.80;15.70
326;DHT22;150;52.352;14.058;2023-06-24T11:44:01;27.00;16.80
326;DHT22;150;52.352;14.058;2023-06-24T11:46:30;27.10;15.20
326;DHT22;150;52.352;14.058;2023-06-24T11:49:04;27.00;14.00
326;DHT22;150;52.352;14.058;2023-06-24T11:51:32;26.80;17.10
326;DHT22;150;52.352;14.058;2023-06-24T11:54:00;26.90;14.40
326;DHT22;150;52.352;14.058;2023-06-24T11:56:36;26.80;15.20
326;DHT22;150;52.352;14.058;2023-06-24T11:59:14;26.90;14.90
326;DHT22;150;52.352;14.058;2023-06-24T12:01:52;27.00;14.70
326;DHT22;150;52.352;14.058;2023-06-24T12:04:27;27.20;14.20
326;DHT22;150;52.352;14.058;2023-06-24T12:07:00;27.30;15.40
326;DHT22;150;52.352;14.058;2023-06-24T12:09:29;27.10;12.80
326;DHT22;150;52.352;14.058;2023-06-24T12:11:59;27.10;15.40
326;DHT22;150;52.352;14.058;2023-06-24T12:14:29;27.00;14.10
326;DHT22;150;52.352;14.058;2023-06-24T12:17:15;27.00;15.40
326;DHT22;150;52.352;14.058;2023-06-24T12:19:46;26.90;15.70
326;DHT22;150;52.352;14.058;2023-06-24T12:22:17;27.00;15.00
326;DHT22;150;52.352;14.058;2023-06-24T12:24:49;27.00;14.20
326;DHT22;150;52.352;14.058;2023-06-24T12:27:16;27.00;13.70
326;DHT22;150;52.352;14.058;2023-06-24T12:29:45;27.00;15.40
326;DHT22;150;52.352;14.058;2023-06-24T12:32:15;27.10;14.10
326;DHT22;150;52.352;14.058;2023-06-24T12:34:46;27.10;13.60
326;DHT22;150;52.352;14.058;2023-06-24T12:37:15;27.20;13.50
326;DHT22;150;52.352;14.058;2023-06-24T12:39:41;27.20;15.50
326;DHT22;150;52.352;14.058;2023-06-24T12:44:55;27.30;13.90
326;DHT22;150;52.352;14.058;2023-06-24T12:47:30;27.20;15.00
326;DHT22;150;52.352;14.058;2023-06-24T12:49:57;26.70;13.30
326;DHT22;150;52.352;14.058;2023-06-24T12:52:32;26.60;16.10
326;DHT22;150;52.352;14.058;2023-06-24T12:54:58;26.70;12.60
326;DHT22;150;52.352;14.058;2023-06-24T12:57:37;27.00;13.60
326;DHT22;150;52.352;14.058;2023-06-24T13:00:05;27.20;14.10
326;DHT22;150;52.352;14.058;2023-06-24T13:02:35;27.20;14.60
326;DHT22;150;52.352;14.058;2023-06-24T13:05:05;27.20;15.70
326;DHT22;150;52.352;14.058;2023-06-24T13:07:34;27.10;14.30
326;DHT22;150;52.352;14.058;2023-06-24T13:10:04;27.30;14.30
326;DHT22;150;52.352;14.058;2023-06-24T13:12:49;27.00;13.40
326;DHT22;150;52.352;14.058;2023-06-24T13:15:21;27.10;13.70
326;DHT22;150;52.352;14.058;2023-06-24T13:18:04;27.10;17.00
326;DHT22;150;52.352;14.058;2023-06-24T13:20:46;27.10;15.00
326;DHT22;150;52.352;14.058;2023-06-24T13:23:19;27.00;14.10
326;DHT22;150;52.352;14.058;2023-06-24T13:26:13;27.00;14.90
326;DHT22;150;52.352;14.058;2023-06-24T13:29:01;27.10;14.80
326;DHT22;150;52.352;14.058;2023-06-24T13:31:39;27.00;14.80
326;DHT22;150;52.352;14.058;2023-06-24T13:34:22;27.20;13.30
326;DHT22;150;52.352;14.058;2023-06-24T13:36:54;27.20;14.10
326;DHT22;150;52.352;14.058;2023-06-24T13:39:27;27.30;13.80
326;DHT22;150;52.352;14.058;2023-06-24T13:42:03;27.30;12.80
326;DHT22;150;52.352;14.058;2023-06-24T13:44:33;27.30;13.30
326;DHT22;150;52.352;14.058;2023-06-24T13:47:25;27.10;14.00
326;DHT22;150;52.352;14.058;2023-06-24T13:50:04;26.80;13.50
326;DHT22;150;52.352;14.058;2023-06-24T13:52:42;26.70;14.30
326;DHT22;150;52.352;14.058;2023-06-24T13:55:16;26.80;16.10
326;DHT22;150;52.352;14.058;2023-06-24T13:57:51;27.00;14.10
326;DHT22;150;52.352;14.058;2023-06-24T14:00:28;27.10;14.70
326;DHT22;150;52.352;14.058;2023-06-24T14:03:01;27.20;13.40
326;DHT22;150;52.352;14.058;2023-06-24T14:05:44;27.30;14.70
326;DHT22;150;52.352;14.058;2023-06-24T14:08:23;27.30;13.40
326;DHT22;150;52.352;14.058;2023-06-24T14:10:54;27.30;14.10
326;DHT22;150;52.352;14.058;2023-06-24T14:13:37;27.30;15.00
326;DHT22;150;52.352;14.058;2023-06-24T14:16:07;27.30;14.40
326;DHT22;150;52.352;14.058;2023-06-24T14:18:34;27.30;14.90
326;DHT22;150;52.352;14.058;2023-06-24T14:21:06;27.30;13.20
326;DHT22;150;52.352;14.058;2023-06-24T14:23:42;27.20;13.80
326;DHT22;150;52.352;14.058;2023-06-24T14:26:30;27.30;14.80
326;DHT22;150;52.352;14.058;2023-06-24T14:29:16;27.40;15.80
326;DHT22;150;52.352;14.058;2023-06-24T14:31:53;27.10;13.80
326;DHT22;150;52.352;14.058;2023-06-24T14:34:56;27.00;15.20
326;DHT22;150;52.352;14.058;2023-06-24T14:37:43;27.20;16.10
326;DHT22;150;52.352;14.058;2023-06-24T14:40:24;27.30;13.90
326;DHT22;150;52.352;14.058;2023-06-24T14:43:04;27.40;12.00
326;DHT22;150;52.352;14.058;2023-06-24T14:45:37;27.30;12.40
326;DHT22;150;52.352;14.058;2023-06-24T14:48:13;27.10;13.20
326;DHT22;150;52.352;14.058;2023-06-24T14:50:58;27.30;12.70
326;DHT22;150;52.352;14.058;2023-06-24T14:53:39;27.00;13.50
326;DHT22;150;52.352;14.058;2023-06-24T14:56:28;27.10;13.70
326;DHT22;150;52.352;14.058;2023-06-24T14:59:18;27.00;13.20
326;DHT22;150;52.352;14.058;2023-06-24T15:01:58;27.10;13.50
326;DHT22;150;52.352;14.058;2023-06-24T15:04:31;27.20;13.90
326;DHT22;150;52.352;14.058;2023-06-24T15:07:00;27.20;12.90
326;DHT22;150;52.352;14.058;2023-06-24T15:09:37;27.10;12.30
326;DHT22;150;52.352;14.058;2023-06-24T15:12:37;27.00;12.90
326;DHT22;150;52.352;14.058;2023-06-24T15:15:20;27.30;14.00
326;DHT22;150;52.352;14.058;2023-06-24T15:18:12;27.30;13.40
326;DHT22;150;52.352;14.058;2023-06-24T15:20:54;27.40;14.40
326;DHT22;150;52.352;14.058;2023-06-24T15:23:25;27.30;15.10
326;DHT22;150;52.352;14.058;2023-06-24T15:26:03;27.20;13.50
326;DHT22;150;52.352;14.058;2023-06-24T15:28:29;27.40;14.50
326;DHT22;150;52.352;14.058;2023-06-24T15:30:58;27.70;13.30
326;DHT22;150;52.352;14.058;2023-06-24T15:33:29;27.80;13.10
326;DHT22;150;52.352;14.058;2023-06-24T15:36:09;27.90;12.20
326;DHT22;150;52.352;14.058;2023-06-24T15:39:10;27.80;11.40
326;DHT22;150;52.352;14.058;2023-06-24T15:41:53;27.80;13.10
326;DHT22;150;52.352;14.058;2023-06-24T15:44:22;27.80;12.10
326;DHT22;150;52.352;14.058;2023-06-24T15:46:51;27.80;12.50
326;DHT22;150;52.352;14.058;2023-06-24T15:49:23;27.80;12.00
326;DHT22;150;52.352;14.058;2023-06-24T15:52:02;27.80;12.50
326;DHT22;150;52.352;14.058;2023-06-24T15:54:31;27.80;12.60
326;DHT22;150;52.352;14.058;2023-06-24T15:57:06;28.10;12.60
326;DHT22;150;52.352;14.058;2023-06-24T15:59:36;27.90;11.60
326;DHT22;150;52.352;14.058;2023-06-24T16:02:06;27.90;12.30
326;DHT22;150;52.352;14.058;2023-06-24T16:04:36;28.00;9.90
326;DHT22;150;52.352;14.058;2023-06-24T16:07:16;28.10;12.20
326;DHT22;150;52.352;14.058;2023-06-24T16:09:43;28.00;11.50
326;DHT22;150;52.352;14.058;2023-06-24T16:12:19;27.70;11.90
326;DHT22;150;52.352;14.058;2023-06-24T16:15:02;27.70;12.00
326;DHT22;150;52.352;14.058;2023-06-24T16:17:42;27.80;12.30
326;DHT22;150;52.352;14.058;2023-06-24T16:20:22;28.00;12.10
326;DHT22;150;52.352;14.058;2023-06-24T16:23:03;28.00;11.80
326;DHT22;150;52.352;14.058;2023-06-24T16:25:30;27.90;11.30
326;DHT22;150;52.352;14.058;2023-06-24T16:28:02;27.80;11.60
326;DHT22;150;52.352;14.058;2023-06-24T16:30:34;27.70;11.50
326;DHT22;150;52.352;14.058;2023-06-24T16:33:03;27.60;11.10
326;DHT22;150;52.352;14.058;2023-06-24T16:35:33;27.30;12.10
326;DHT22;150;52.352;14.058;2023-06-24T16:38:00;27.30;12.30
326;DHT22;150;52.352;14.058;2023-06-24T16:40:29;27.30;12.60
326;DHT22;150;52.352;14.058;2023-06-24T16:43:02;27.00;12.70
326;DHT22;150;52.352;14.058;2023-06-24T16:45:28;27.00;12.60
326;DHT22;150;52.352;14.058;2023-06-24T16:47:55;26.90;13.10
326;DHT22;150;52.352;14.058;2023-06-24T16:50:22;26.80;12.50
326;DHT22;150;52.352;14.058;2023-06-24T16:52:48;26.80;13.00
326;DHT22;150;52.352;14.058;2023-06-24T16:55:15;26.80;13.30